Time;durP1;ratioP1;P1;durP2;ratioP2;P2;SDS_P1;SDS_P2;PMS_P1;PMS_P2;Temp;Humidity;BMP_temperature;BMP_pressure;BME280_temperature;BME280_humidity;BME280_pressure;Samples;Min_cycle;Max_cycle;Signal;HPM_P1;HPM_P2
2022/02/17 00:01:46;;;;;;;12.47;8.88;;;;;;;7.27;55.14;93508.47;1546147;90;21637;-46
2022/02/17 00:04:13;;;;;;;10.50;8.38;;;;;;;7.29;54.49;93507.40;1529900;91;21136;-45
2022/02/17 00:06:39;;;;;;;10.13;8.45;;;;;;;7.33;54.57;93494.33;1533498;91;21093;-47
2022/02/17 00:09:06;;;;;;;15.32;10.25;;;;;;;7.37;54.82;93490.82;1532181;90;22018;-47
2022/02/17 00:11:34;;;;;;;9.93;8.85;;;;;;;7.36;54.91;93494.77;1550191;91;21083;-46
2022/02/17 00:14:01;;;;;;;10.25;8.73;;;;;;;7.38;55.59;93481.39;1543479;90;21032;-47
2022/02/17 00:16:27;;;;;;;9.28;8.25;;;;;;;7.35;55.38;93477.47;1544335;90;21057;-47
2022/02/17 00:18:55;;;;;;;9.38;7.95;;;;;;;7.33;55.01;93462.86;1548778;90;21050;-46
2022/02/17 00:21:22;;;;;;;8.75;7.72;;;;;;;7.29;54.37;93463.63;1534595;92;21202;-47
2022/02/17 00:23:49;;;;;;;9.98;8.38;;;;;;;7.30;54.57;93457.57;1532060;91;21017;-46
2022/02/17 00:26:15;;;;;;;10.35;8.15;;;;;;;7.27;54.64;93472.91;1532339;92;21100;-47
2022/02/17 00:28:42;;;;;;;8.50;6.75;;;;;;;7.25;54.62;93434.91;1547087;90;21526;-47
2022/02/17 00:31:09;;;;;;;8.10;7.35;;;;;;;7.23;54.56;93437.34;1532466;91;21072;-47
2022/02/17 00:33:38;;;;;;;7.50;6.75;;;;;;;7.23;54.62;93427.78;1553238;90;21183;-46
2022/02/17 00:36:06;;;;;;;8.28;7.37;;;;;;;7.22;54.69;93418.05;1544959;91;21247;-47
2022/02/17 00:38:33;;;;;;;10.70;8.55;;;;;;;7.17;54.83;93399.53;1541704;90;21160;-46
2022/02/17 00:40:59;;;;;;;8.08;6.92;;;;;;;7.16;53.61;93402.12;1546342;90;21140;-47
2022/02/17 00:43:26;;;;;;;7.83;6.87;;;;;;;7.26;53.66;93400.87;1544501;90;21556;-47
2022/02/17 00:45:53;;;;;;;11.83;7.22;;;;;;;7.32;53.77;93401.17;1541682;90;21976;-47
2022/02/17 00:48:22;;;;;;;9.15;8.00;;;;;;;7.34;53.79;93396.00;1544531;90;21033;-47
2022/02/17 00:50:49;;;;;;;7.97;7.17;;;;;;;7.34;53.49;93391.16;1541548;91;21068;-46
2022/02/17 00:53:15;;;;;;;8.45;7.40;;;;;;;7.37;53.43;93397.81;1532840;92;21162;-46
2022/02/17 00:55:43;;;;;;;8.18;7.30;;;;;;;7.38;53.54;93388.39;1532425;92;21018;-47
2022/02/17 00:58:09;;;;;;;9.00;7.80;;;;;;;7.40;53.61;93371.53;1515167;91;21867;-47
2022/02/17 01:00:36;;;;;;;8.53;7.62;;;;;;;7.40;54.22;93364.09;1533801;92;21093;-47
2022/02/17 01:03:07;;;;;;;8.15;7.10;;;;;;;7.39;53.71;93374.89;1543260;90;21121;-46
2022/02/17 01:05:34;;;;;;;9.20;7.95;;;;;;;7.38;53.50;93362.40;1532626;91;21463;-47
2022/02/17 01:08:00;;;;;;;9.15;7.05;;;;;;;7.38;53.01;93361.66;1542373;90;21525;-46
2022/02/17 01:10:28;;;;;;;7.62;6.90;;;;;;;7.40;52.92;93378.36;1543895;90;21532;-47
2022/02/17 01:12:56;;;;;;;13.22;9.75;;;;;;;7.42;53.16;93404.05;1544863;91;21135;-47
2022/02/17 01:15:24;;;;;;;11.73;9.15;;;;;;;7.44;53.23;93367.42;1531199;92;21087;-48
2022/02/17 01:17:51;;;;;;;8.45;7.22;;;;;;;7.45;53.15;93366.20;1546349;90;21179;-46
2022/02/17 01:20:17;;;;;;;8.90;7.87;;;;;;;7.46;53.04;93352.67;1545409;90;21088;-47
2022/02/17 01:22:45;;;;;;;9.45;7.87;;;;;;;7.46;52.41;93351.30;1549339;90;21841;-47
2022/02/17 01:25:13;;;;;;;9.85;7.45;;;;;;;7.46;52.25;93340.35;1512943;91;21117;-47
2022/02/17 01:27:42;;;;;;;7.90;6.90;;;;;;;7.47;52.39;93328.78;1544044;90;21025;-47
2022/02/17 01:30:11;;;;;;;6.50;5.90;;;;;;;7.47;52.24;93332.89;1542581;91;21089;-46
2022/02/17 01:32:37;;;;;;;7.03;5.97;;;;;;;7.44;52.07;93318.17;1545924;90;21001;-47
2022/02/17 01:35:06;;;;;;;8.40;6.17;;;;;;;7.42;52.46;93298.73;1511914;91;21885;-47
2022/02/17 01:37:33;;;;;;;7.55;6.28;;;;;;;7.37;52.04;93297.97;1547613;90;21170;-47
2022/02/17 01:40:00;;;;;;;6.42;5.83;;;;;;;7.36;52.46;93306.03;1544496;90;21589;-46
2022/02/17 01:42:27;;;;;;;6.30;5.37;;;;;;;7.34;52.33;93298.16;1544599;91;21061;-46
2022/02/17 01:44:55;;;;;;;6.85;6.15;;;;;;;7.34;52.04;93316.67;1531920;91;21108;-47
2022/02/17 01:47:22;;;;;;;7.67;6.42;;;;;;;7.35;52.37;93291.46;1543399;91;22017;-46
2022/02/17 01:49:49;;;;;;;6.87;6.17;;;;;;;7.33;52.38;93283.70;1531964;90;21120;-46
2022/02/17 01:52:17;;;;;;;7.33;6.58;;;;;;;7.35;52.79;93305.14;1532573;91;21005;-46
2022/02/17 01:54:45;;;;;;;12.30;11.10;;;;;;;7.33;52.91;93292.53;1530950;91;21450;-47
2022/02/17 01:57:15;;;;;;;7.90;7.20;;;;;;;7.31;53.37;93277.20;1549204;90;21017;-47
2022/02/17 01:59:44;;;;;;;7.20;6.47;;;;;;;7.26;53.26;93292.84;1544758;91;21180;-46
2022/02/17 02:02:13;;;;;;;11.20;8.15;;;;;;;7.23;53.28;93282.83;1578602;85;21208;-50
2022/02/17 02:04:40;;;;;;;25.62;15.10;;;;;;;7.18;53.23;93269.16;1629572;86;21016;-48
2022/02/17 02:07:07;;;;;;;16.77;10.58;;;;;;;7.16;53.32;93272.97;1636500;85;21030;-48
2022/02/17 02:09:34;;;;;;;9.90;7.72;;;;;;;7.13;53.45;93272.53;1643549;85;21010;-49
2022/02/17 02:12:14;;;;;;;27.98;16.05;;;;;;;7.09;53.19;93239.73;1592191;87;21193;-48
2022/02/17 02:14:53;;;;;;;15.70;10.63;;;;;;;7.07;53.68;93244.16;1588976;88;21077;-48
2022/02/17 02:17:23;;;;;;;20.40;13.83;;;;;;;7.03;53.47;93248.41;1604901;88;21182;-48
2022/02/17 02:19:57;;;;;;;47.78;25.37;;;;;;;7.02;52.93;93248.86;1602459;88;21042;-49
2022/02/17 02:25:29;;;;;;;12.63;9.18;;;;;;;7.08;53.27;93234.73;1751472;79;26324;-47
2022/02/17 02:27:56;;;;;;;16.67;13.95;;;;;;;7.08;53.17;93229.27;1720147;81;21073;-47
2022/02/17 02:30:24;;;;;;;16.77;10.95;;;;;;;7.10;52.94;93233.81;1715371;82;21381;-46
2022/02/17 02:32:51;;;;;;;13.58;8.03;;;;;;;7.11;52.67;93224.39;1718969;82;21560;-46
2022/02/17 02:35:18;;;;;;;13.50;10.48;;;;;;;7.14;52.89;93210.41;1699155;82;21073;-45
2022/02/17 02:37:44;;;;;;;10.43;8.53;;;;;;;7.15;53.33;93199.00;1718284;82;20990;-46
2022/02/17 02:40:13;;;;;;;13.22;9.38;;;;;;;7.10;53.38;93192.80;1723305;81;20967;-46
2022/02/17 02:42:40;;;;;;;15.08;9.78;;;;;;;7.07;53.63;93194.95;1695879;82;21162;-47
2022/02/17 02:45:09;;;;;;;11.43;8.83;;;;;;;7.05;53.47;93196.77;1724598;82;21175;-46
2022/02/17 02:47:37;;;;;;;19.65;12.05;;;;;;;7.06;54.05;93216.05;1720153;81;21005;-47
2022/02/17 02:50:05;;;;;;;21.42;11.65;;;;;;;7.05;54.02;93191.92;1714900;82;20965;-46
2022/02/17 02:52:36;;;;;;;19.92;10.93;;;;;;;7.03;53.96;93199.83;1717896;82;21112;-45
2022/02/17 02:55:04;;;;;;;25.75;13.53;;;;;;;7.04;53.35;93167.91;1712951;82;21160;-46
2022/02/17 02:57:31;;;;;;;15.15;9.03;;;;;;;7.06;53.57;93168.83;1719345;82;20962;-47
2022/02/17 02:59:59;;;;;;;29.48;16.48;;;;;;;7.05;53.37;93181.73;1725015;82;21034;-46
2022/02/17 03:02:26;;;;;;;11.57;8.33;;;;;;;7.05;53.50;93184.47;1714454;82;21228;-47
2022/02/17 03:04:53;;;;;;;29.25;13.75;;;;;;;7.06;53.17;93189.33;1680714;82;21580;-46
2022/02/17 03:07:20;;;;;;;43.78;16.42;;;;;;;7.08;53.26;93175.33;1731229;81;21153;-47
2022/02/17 03:09:49;;;;;;;40.70;15.75;;;;;;;7.09;53.32;93185.81;1723532;81;21053;-47
2022/02/17 03:12:16;;;;;;;43.52;16.02;;;;;;;7.11;53.31;93194.91;1713355;82;21220;-46
2022/02/17 03:14:44;;;;;;;56.92;20.17;;;;;;;7.11;53.18;93183.38;1715362;82;21101;-46
2022/02/17 03:17:13;;;;;;;50.10;17.10;;;;;;;7.14;53.11;93174.87;1714659;82;21022;-46
2022/02/17 03:19:39;;;;;;;29.15;11.80;;;;;;;7.17;52.96;93191.09;1720574;82;21124;-46
2022/02/17 03:22:06;;;;;;;22.25;10.18;;;;;;;7.19;53.10;93176.34;1719190;81;20956;-47
2022/02/17 03:24:36;;;;;;;69.03;20.82;;;;;;;7.16;53.24;93173.80;1690517;82;21207;-46
2022/02/17 03:27:05;;;;;;;80.47;25.17;;;;;;;7.12;53.40;93167.74;1656659;84;21096;-46
2022/02/17 03:29:33;;;;;;;90.65;28.52;;;;;;;7.10;53.27;93172.30;1694206;83;21528;-46
2022/02/17 03:32:02;;;;;;;18.20;8.88;;;;;;;7.10;53.08;93158.63;1657573;83;21685;-46
2022/02/17 03:34:29;;;;;;;74.15;26.48;;;;;;;7.08;53.14;93150.73;1703588;83;21141;-46
2022/02/17 03:36:58;;;;;;;69.50;23.35;;;;;;;7.07;52.98;93158.78;1702545;83;21039;-46
2022/02/17 03:39:26;;;;;;;35.35;14.83;;;;;;;7.12;53.10;93124.73;1693383;83;21010;-46
2022/02/17 03:41:54;;;;;;;55.75;20.50;;;;;;;7.14;52.52;93116.08;1691207;83;20997;-47
2022/02/17 03:44:22;;;;;;;74.15;30.92;;;;;;;7.15;52.41;93098.45;1703637;83;21138;-46
2022/02/17 03:46:50;;;;;;;19.87;10.40;;;;;;;7.15;52.16;93102.55;1704692;83;21044;-46
2022/02/17 03:49:18;;;;;;;12.68;8.18;;;;;;;7.15;52.17;93096.46;1657141;84;21076;-46
2022/02/17 03:51:45;;;;;;;17.80;10.45;;;;;;;7.17;51.73;93076.88;1699163;83;21019;-46
2022/02/17 03:54:12;;;;;;;11.73;7.83;;;;;;;7.18;51.76;93070.92;1692188;83;21072;-46
2022/02/17 03:56:40;;;;;;;5.55;5.05;;;;;;;7.16;51.32;93076.09;1661517;83;22008;-46
2022/02/17 03:59:15;;;;;;;38.78;19.37;;;;;;;7.20;51.56;93062.27;1669934;83;21199;-46
2022/02/17 04:01:42;;;;;;;16.80;10.13;;;;;;;7.23;51.57;93040.22;1660144;83;21105;-46
2022/02/17 04:04:10;;;;;;;20.20;11.18;;;;;;;7.21;51.42;93026.26;1692854;83;21099;-46
2022/02/17 04:06:38;;;;;;;13.60;9.43;;;;;;;7.23;50.57;93037.48;1705124;83;21024;-46
2022/02/17 04:09:06;;;;;;;7.35;6.33;;;;;;;7.27;50.72;93038.05;1662987;83;21234;-47
2022/02/17 04:11:34;;;;;;;8.88;7.62;;;;;;;7.29;50.70;93043.81;1707419;83;21579;-46
2022/02/17 04:14:02;;;;;;;12.58;9.38;;;;;;;7.30;50.65;93032.27;1693276;83;21036;-46
2022/02/17 04:16:31;;;;;;;6.17;5.58;;;;;;;7.31;51.09;93009.91;1699396;83;21509;-46
2022/02/17 04:19:08;;;;;;;6.03;5.45;;;;;;;7.28;50.89;93021.02;1630705;86;21518;-46
2022/02/17 04:21:54;;;;;;;6.00;5.05;;;;;;;7.27;51.07;93005.84;1703719;83;21108;-47
2022/02/17 04:24:26;;;;;;;7.78;6.97;;;;;;;7.24;50.94;93030.79;1689148;83;21077;-46
2022/02/17 04:26:54;;;;;;;8.00;6.80;;;;;;;7.22;51.23;93025.03;1694601;83;21064;-47
2022/02/17 04:29:24;;;;;;;6.28;5.67;;;;;;;7.20;50.24;93002.88;1687496;83;21042;-47
2022/02/17 04:31:52;;;;;;;6.05;5.45;;;;;;;7.26;50.21;93006.47;1707482;83;20964;-47
2022/02/17 04:34:21;;;;;;;7.83;7.03;;;;;;;7.31;49.36;93024.21;1688557;83;21168;-47
2022/02/17 04:36:48;;;;;;;10.23;6.22;;;;;;;7.35;49.17;93007.74;1656290;84;21061;-48
2022/02/17 04:39:14;;;;;;;9.35;7.45;;;;;;;7.41;48.73;93023.67;1661694;83;21062;-46
2022/02/17 04:44:29;;;;;;;22.10;13.28;;;;;;;7.46;49.12;93016.17;1694910;83;21076;-47
2022/02/17 04:46:58;;;;;;;8.08;7.20;;;;;;;7.45;49.63;93022.87;1718163;83;21153;-47
2022/02/17 04:49:25;;;;;;;13.62;10.50;;;;;;;7.39;49.68;93008.34;1683557;83;21262;-46
2022/02/17 04:51:52;;;;;;;7.83;7.15;;;;;;;7.37;48.40;93018.97;1687165;83;21084;-47
2022/02/17 04:54:19;;;;;;;7.33;5.80;;;;;;;7.43;47.82;93049.94;1688004;83;21076;-47
2022/02/17 04:56:47;;;;;;;8.55;7.65;;;;;;;7.54;47.25;93040.56;1663105;83;21012;-46
2022/02/17 04:59:14;;;;;;;8.30;7.28;;;;;;;7.65;47.09;93022.23;1700100;83;21184;-46
2022/02/17 05:01:46;;;;;;;6.97;6.35;;;;;;;7.68;46.72;93021.31;1722705;83;21590;-47
2022/02/17 05:04:31;;;;;;;9.63;8.58;;;;;;;7.71;46.65;93027.95;1696867;83;21022;-46
2022/02/17 05:07:06;;;;;;;10.23;9.20;;;;;;;7.73;47.25;93012.44;1694891;83;21068;-46
2022/02/17 05:09:33;;;;;;;8.38;7.50;;;;;;;7.71;46.91;93013.53;1658403;83;21475;-53
2022/02/17 05:12:01;;;;;;;5.97;5.05;;;;;;;7.71;46.13;93015.64;1676085;83;21806;-46
2022/02/17 05:14:28;;;;;;;5.40;4.90;;;;;;;7.77;45.91;93003.42;1682251;83;21205;-47
2022/02/17 05:16:55;;;;;;;9.03;6.87;;;;;;;7.85;45.59;92993.00;1695250;83;21083;-47
2022/02/17 05:19:23;;;;;;;8.08;6.75;;;;;;;7.93;45.60;92987.30;1682661;83;21043;-46
2022/02/17 05:22:09;;;;;;;22.62;14.03;;;;;;;7.96;45.62;92978.74;1690805;83;21095;-46
2022/02/17 05:24:41;;;;;;;6.97;6.03;;;;;;;7.97;45.44;92978.28;1657894;84;21194;-46
2022/02/17 05:27:26;;;;;;;13.65;7.62;;;;;;;7.99;44.93;92973.09;1688953;83;20965;-49
2022/02/17 05:29:57;;;;;;;9.70;8.33;;;;;;;8.01;44.26;92971.23;1672772;83;21069;-51
2022/02/17 05:32:42;;;;;;;7.50;4.85;;;;;;;8.03;44.11;92967.43;1690479;83;20994;-49
2022/02/17 05:35:13;;;;;;;7.80;3.17;;;;;;;8.09;43.98;92940.88;1688427;83;21194;-47
2022/02/17 05:37:57;;;;;;;9.83;5.87;;;;;;;8.12;41.55;92920.16;1667554;83;21520;-47
2022/02/17 05:40:37;;;;;;;7.03;6.40;;;;;;;8.25;41.19;92911.02;1668202;83;21134;-45
2022/02/17 05:43:05;;;;;;;7.05;6.35;;;;;;;8.34;41.61;92917.77;1701911;83;21140;-46
2022/02/17 05:45:31;;;;;;;7.75;4.97;;;;;;;8.34;41.67;92933.44;1674296;83;21031;-46
2022/02/17 05:47:58;;;;;;;5.53;4.95;;;;;;;8.32;41.59;92945.48;1668853;83;21704;-47
2022/02/17 05:50:25;;;;;;;33.83;19.15;;;;;;;8.35;40.70;92926.13;1699445;83;21163;-47
2022/02/17 05:52:53;;;;;;;22.40;13.38;;;;;;;8.40;40.39;92929.55;1668915;83;21026;-46
2022/02/17 05:55:20;;;;;;;11.05;8.23;;;;;;;8.43;41.19;92947.77;1700975;83;21997;-47
2022/02/17 05:57:49;;;;;;;4.37;3.98;;;;;;;8.39;40.28;92943.11;1709323;83;21094;-46
2022/02/17 06:00:17;;;;;;;3.80;3.35;;;;;;;8.40;39.88;92968.53;1674854;83;21087;-46
2022/02/17 06:02:43;;;;;;;4.42;3.65;;;;;;;8.44;40.68;92934.84;1673457;83;21216;-46
2022/02/17 06:05:11;;;;;;;6.50;4.15;;;;;;;8.45;40.51;92938.45;1712064;83;21578;-46
2022/02/17 06:07:39;;;;;;;3.22;3.02;;;;;;;8.50;41.23;92930.18;1678206;83;21179;-45
2022/02/17 06:10:08;;;;;;;22.75;20.85;;;;;;;8.54;40.83;92956.76;1673168;83;21613;-46
2022/02/17 06:12:46;;;;;;;3.90;3.60;;;;;;;8.56;40.73;92967.39;1690516;83;20958;-46
2022/02/17 06:15:16;;;;;;;14.93;13.58;;;;;;;8.58;39.76;92977.89;1688237;83;21001;-45
2022/02/17 06:17:45;;;;;;;22.00;19.00;;;;;;;8.59;41.14;92974.66;1692552;83;21072;-46
2022/02/17 06:20:13;;;;;;;64.95;48.55;;;;;;;8.56;41.00;92976.22;1692459;83;21054;-48
2022/02/17 06:22:46;;;;;;;51.28;37.38;;;;;;;8.52;41.28;92957.85;1694041;82;21076;-48
2022/02/17 06:25:16;;;;;;;43.65;33.67;;;;;;;8.49;42.24;92951.36;1703678;82;21186;-50
2022/02/17 06:27:43;;;;;;;23.35;21.07;;;;;;;8.43;42.23;92975.16;1694654;83;21852;-53
2022/02/17 06:30:11;;;;;;;44.58;34.55;;;;;;;8.42;42.61;92966.81;1696922;83;21057;-49
2022/02/17 06:32:54;;;;;;;23.50;21.10;;;;;;;8.38;42.41;92965.48;1699718;82;21624;-48
2022/02/17 06:35:24;;;;;;;26.52;24.15;;;;;;;8.37;43.03;92968.86;1691346;83;21090;-47
2022/02/17 06:37:51;;;;;;;93.40;84.52;;;;;;;8.34;43.43;92958.86;1685984;83;21095;-48
2022/02/17 06:40:20;;;;;;;22.32;17.37;;;;;;;8.34;43.58;92956.12;1689370;83;21189;-51
2022/02/17 06:42:47;;;;;;;7.42;6.72;;;;;;;8.30;42.96;92950.09;1687707;83;21072;-50
2022/02/17 06:45:16;;;;;;;5.28;4.47;;;;;;;8.27;42.29;92956.49;1681292;82;21061;-51
2022/02/17 06:47:42;;;;;;;12.90;9.55;;;;;;;8.29;42.79;92957.40;1688528;82;21127;-48
2022/02/17 06:50:14;;;;;;;13.38;10.58;;;;;;;8.27;42.62;92977.03;1666450;82;21589;-48
2022/02/17 06:52:41;;;;;;;35.78;25.62;;;;;;;8.29;43.14;92955.40;1709202;81;21034;-49
2022/02/17 06:55:08;;;;;;;43.98;29.85;;;;;;;8.30;43.15;92939.12;1699061;82;21227;-49
2022/02/17 06:57:35;;;;;;;76.85;45.58;;;;;;;8.33;43.30;92927.22;1693747;82;21071;-48
2022/02/17 07:00:04;;;;;;;12.88;9.75;;;;;;;8.33;43.29;92894.34;1689150;82;21042;-47
2022/02/17 07:02:33;;;;;;;4.05;3.70;;;;;;;8.37;42.43;92872.97;1703210;82;21011;-48
2022/02/17 07:05:01;;;;;;;8.08;6.62;;;;;;;8.41;41.78;92883.11;1691857;83;21180;-52
2022/02/17 07:07:28;;;;;;;5.30;3.95;;;;;;;8.46;42.24;92879.68;1654578;82;21055;-49
2022/02/17 07:09:54;;;;;;;5.80;5.22;;;;;;;8.45;42.37;92888.39;1692042;82;21017;-50
2022/02/17 07:12:23;;;;;;;4.60;4.20;;;;;;;8.43;43.07;92870.31;1686057;82;21006;-51
2022/02/17 07:14:51;;;;;;;5.45;4.95;;;;;;;8.43;43.30;92873.80;1668356;83;21007;-50
2022/02/17 07:17:21;;;;;;;5.10;4.55;;;;;;;8.42;43.92;92876.39;1680497;82;21135;-49
2022/02/17 07:19:49;;;;;;;7.28;5.65;;;;;;;8.37;43.78;92883.94;1662615;82;21040;-49
2022/02/17 07:22:17;;;;;;;8.63;5.67;;;;;;;8.39;44.08;92868.38;1671066;83;21039;-51
2022/02/17 07:24:44;;;;;;;6.53;5.90;;;;;;;8.38;44.68;92867.63;1710640;82;21051;-50
2022/02/17 07:27:11;;;;;;;10.38;5.72;;;;;;;8.35;44.69;92845.31;1694351;82;21070;-50
2022/02/17 07:29:38;;;;;;;8.03;4.87;;;;;;;8.35;45.29;92843.17;1701861;82;21298;-51
2022/02/17 07:32:07;;;;;;;11.45;8.38;;;;;;;8.36;45.68;92829.00;1663603;83;20969;-50
2022/02/17 07:34:34;;;;;;;9.85;7.40;;;;;;;8.37;45.77;92823.66;1681023;83;21100;-53
2022/02/17 07:37:01;;;;;;;12.90;10.23;;;;;;;8.38;46.18;92814.21;1699416;82;21065;-50
2022/02/17 07:39:30;;;;;;;11.18;8.35;;;;;;;8.38;46.50;92823.80;1689404;82;20990;-51
2022/02/17 07:41:57;;;;;;;14.80;9.63;;;;;;;8.38;46.51;92828.51;1694942;82;21146;-50
2022/02/17 07:44:25;;;;;;;11.97;9.50;;;;;;;8.36;46.50;92831.75;1688601;82;21072;-51
2022/02/17 07:46:53;;;;;;;5.58;5.00;;;;;;;8.36;46.61;92839.20;1660714;83;21002;-56
2022/02/17 07:49:20;;;;;;;4.87;4.08;;;;;;;8.35;46.91;92837.09;1688083;83;20998;-51
2022/02/17 07:51:47;;;;;;;7.50;6.75;;;;;;;8.36;46.98;92818.05;1687165;82;21103;-49
2022/02/17 07:54:15;;;;;;;4.78;4.30;;;;;;;8.36;47.05;92836.45;1691456;82;21110;-55
2022/02/17 07:56:44;;;;;;;5.78;4.72;;;;;;;8.33;47.34;92842.30;1665310;83;21077;-50
2022/02/17 07:59:11;;;;;;;6.75;5.37;;;;;;;8.32;47.52;92835.31;1676991;83;21940;-49
2022/02/17 08:01:38;;;;;;;10.72;7.72;;;;;;;8.31;47.96;92835.17;1703165;83;21032;-50
2022/02/17 08:04:04;;;;;;;9.20;6.17;;;;;;;8.30;48.25;92818.60;1691723;82;21661;-49
2022/02/17 08:06:31;;;;;;;4.97;4.40;;;;;;;8.31;48.72;92823.45;1703813;82;22350;-49
2022/02/17 08:08:58;;;;;;;4.60;3.90;;;;;;;8.30;48.85;92815.86;1696728;81;21066;-51
2022/02/17 08:11:27;;;;;;;7.35;6.65;;;;;;;8.30;49.37;92808.25;1707583;82;21136;-52
2022/02/17 08:13:56;;;;;;;7.28;6.12;;;;;;;8.28;49.82;92790.91;1695691;82;21767;-52
2022/02/17 08:16:26;;;;;;;22.73;15.70;;;;;;;8.29;50.18;92775.98;1678384;83;20966;-50
2022/02/17 08:18:54;;;;;;;11.65;7.70;;;;;;;8.32;50.45;92777.02;1685273;82;20992;-48
2022/02/17 08:21:22;;;;;;;7.42;6.60;;;;;;;8.31;50.95;92800.17;1686363;82;21283;-53
2022/02/17 08:23:49;;;;;;;12.73;7.72;;;;;;;8.27;50.77;92800.36;1638260;82;21082;-49
2022/02/17 08:26:17;;;;;;;6.85;5.37;;;;;;;8.30;50.79;92791.81;1693295;83;21466;-50
2022/02/17 08:28:45;;;;;;;6.50;5.87;;;;;;;8.34;50.82;92779.42;1693919;82;21002;-49
2022/02/17 08:31:13;;;;;;;4.37;3.98;;;;;;;8.35;50.97;92779.56;1691593;83;21191;-47
2022/02/17 08:33:41;;;;;;;5.65;5.05;;;;;;;8.33;51.13;92774.41;1693328;82;21566;-51
2022/02/17 08:36:09;;;;;;;8.55;5.40;;;;;;;8.32;51.39;92783.27;1693068;82;21007;-49
2022/02/17 08:38:39;;;;;;;6.37;5.37;;;;;;;8.32;51.61;92779.16;1670421;82;21161;-51
2022/02/17 08:41:06;;;;;;;16.67;14.98;;;;;;;8.32;51.35;92795.59;1698330;82;21079;-52
2022/02/17 08:43:34;;;;;;;10.80;8.35;;;;;;;8.33;51.46;92809.42;1700410;82;21319;-50
2022/02/17 08:46:02;;;;;;;7.40;6.70;;;;;;;8.33;51.53;92810.80;1681323;84;20986;-49
2022/02/17 08:48:29;;;;;;;5.92;5.42;;;;;;;8.35;51.54;92822.02;1694460;83;21617;-52
2022/02/17 08:50:56;;;;;;;4.62;4.22;;;;;;;8.37;51.51;92804.48;1688950;82;21053;-51
2022/02/17 08:53:25;;;;;;;5.58;5.08;;;;;;;8.41;51.73;92815.98;1701118;82;21131;-49
2022/02/17 08:55:52;;;;;;;10.48;6.12;;;;;;;8.46;51.95;92812.55;1656477;83;21974;-51
2022/02/17 08:58:20;;;;;;;4.53;4.20;;;;;;;8.48;52.11;92796.41;1682496;83;21077;-51
2022/02/17 09:00:52;;;;;;;7.70;5.72;;;;;;;8.47;52.33;92777.06;1672274;83;21026;-49
2022/02/17 09:03:19;;;;;;;5.05;4.53;;;;;;;8.43;52.54;92794.97;1696990;82;21112;-50
2022/02/17 09:05:47;;;;;;;7.47;6.78;;;;;;;8.37;53.05;92778.46;1688516;82;21687;-49
2022/02/17 09:08:14;;;;;;;5.30;4.80;;;;;;;8.36;53.50;92782.44;1687878;83;21047;-51
2022/02/17 09:10:42;;;;;;;4.72;4.37;;;;;;;8.30;53.95;92769.91;1687655;82;21027;-52
2022/02/17 09:13:08;;;;;;;6.25;5.65;;;;;;;8.26;54.27;92757.77;1691755;83;21578;-47
2022/02/17 09:15:36;;;;;;;6.30;5.70;;;;;;;8.19;54.51;92754.69;1655488;83;21679;-50
2022/02/17 09:18:04;;;;;;;5.67;5.12;;;;;;;8.10;54.86;92741.86;1685385;82;21100;-49
2022/02/17 09:20:32;;;;;;;3.85;3.55;;;;;;;8.04;55.46;92741.05;1689181;82;22036;-49
2022/02/17 09:22:59;;;;;;;5.47;4.70;;;;;;;7.96;55.87;92723.54;1704140;82;21223;-51
2022/02/17 09:25:26;;;;;;;8.53;6.72;;;;;;;7.88;56.63;92697.05;1662157;83;21490;-50
2022/02/17 09:27:53;;;;;;;12.23;11.05;;;;;;;7.82;56.98;92707.92;1678525;83;22107;-52
2022/02/17 09:30:20;;;;;;;4.60;4.25;;;;;;;7.94;56.96;92687.68;1675215;83;21035;-50
2022/02/17 09:32:48;;;;;;;8.08;5.15;;;;;;;8.22;56.24;92690.77;1683567;83;21142;-48
2022/02/17 09:35:15;;;;;;;4.92;4.40;;;;;;;8.49;56.39;92704.76;1701423;82;21036;-48
2022/02/17 09:37:42;;;;;;;4.25;3.95;;;;;;;8.69;56.38;92702.57;1695638;82;21105;-52
2022/02/17 09:40:11;;;;;;;3.83;3.47;;;;;;;8.85;55.81;92706.85;1686286;83;21032;-54
2022/02/17 09:42:41;;;;;;;5.17;4.78;;;;;;;9.00;55.60;92701.98;1703704;84;21070;-51
2022/02/17 09:45:09;;;;;;;3.50;3.20;;;;;;;9.02;55.62;92691.27;1711350;82;21866;-53
2022/02/17 09:47:40;;;;;;;3.27;2.98;;;;;;;9.05;56.77;92675.23;1672011;85;21077;-50
2022/02/17 09:50:09;;;;;;;4.67;3.70;;;;;;;8.97;57.30;92681.78;1674259;84;20985;-52
2022/02/17 09:52:38;;;;;;;3.90;3.60;;;;;;;8.90;57.49;92692.44;1699142;83;21027;-50
2022/02/17 09:55:08;;;;;;;4.15;3.75;;;;;;;8.95;57.08;92706.80;1704329;83;21028;-51
2022/02/17 09:57:37;;;;;;;4.37;3.98;;;;;;;9.02;56.00;92703.61;1624757;86;21111;-57
2022/02/17 10:00:08;;;;;;;6.10;3.83;;;;;;;9.23;55.55;92731.11;1628346;86;21082;-48
2022/02/17 10:02:42;;;;;;;2.90;2.50;;;;;;;9.40;54.70;92733.36;1685164;83;21063;-50
2022/02/17 10:05:15;;;;;;;2.90;2.67;;;;;;;9.32;55.34;92692.50;1695928;82;22190;-49
2022/02/17 10:07:43;;;;;;;3.77;3.45;;;;;;;9.13;57.13;92683.14;1703445;82;21109;-51
2022/02/17 10:10:14;;;;;;;4.20;2.83;;;;;;;8.89;58.32;92693.04;1669125;84;21588;-56
2022/02/17 10:13:04;;;;;;;3.30;3.05;;;;;;;8.66;58.01;92675.50;1699625;83;21248;-54
2022/02/17 10:15:37;;;;;;;3.62;3.33;;;;;;;8.47;59.15;92664.73;1694692;83;21071;-49
2022/02/17 10:18:08;;;;;;;3.45;3.25;;;;;;;8.32;59.43;92665.48;1678815;83;21268;-52
2022/02/17 10:21:08;;;;;;;4.08;3.67;;;;;;;8.29;59.59;92680.75;1679640;84;21011;-50
2022/02/17 10:23:43;;;;;;;3.67;3.40;;;;;;;8.25;60.23;92659.67;1686670;83;21195;-51
2022/02/17 10:26:22;;;;;;;14.58;7.83;;;;;;;8.19;60.10;92656.10;1680210;84;21104;-52
2022/02/17 10:28:59;;;;;;;3.25;3.05;;;;;;;8.08;60.60;92621.12;1653526;84;21548;-53
2022/02/17 10:31:31;;;;;;;3.22;3.02;;;;;;;7.91;61.23;92617.45;1654894;84;21120;-50
2022/02/17 10:34:00;;;;;;;4.77;4.37;;;;;;;7.80;61.61;92607.76;1705865;81;21054;-48
2022/02/17 10:36:38;;;;;;;3.08;2.87;;;;;;;7.71;62.13;92606.52;1698839;82;21850;-48
2022/02/17 10:39:22;;;;;;;5.85;4.10;;;;;;;7.65;62.37;92585.20;1706690;82;21113;-49
2022/02/17 10:41:51;;;;;;;4.53;3.77;;;;;;;7.63;62.85;92575.35;1652564;83;21099;-49
2022/02/17 10:44:25;;;;;;;3.80;3.50;;;;;;;7.64;63.11;92580.19;1694538;82;21066;-49
2022/02/17 10:46:52;;;;;;;4.10;3.80;;;;;;;7.67;63.52;92566.94;1679782;83;21126;-48
2022/02/17 10:49:20;;;;;;;5.30;4.72;;;;;;;7.68;63.70;92560.97;1698004;82;21104;-50
2022/02/17 10:51:50;;;;;;;3.52;3.22;;;;;;;7.73;64.07;92545.86;1710602;82;21061;-49
2022/02/17 10:54:21;;;;;;;4.25;3.85;;;;;;;7.77;63.63;92540.31;1686918;82;21065;-50
2022/02/17 10:56:51;;;;;;;4.55;4.12;;;;;;;7.88;64.30;92534.20;1690532;83;21448;-50
2022/02/17 11:02:05;;;;;;;5.15;4.65;;;;;;;8.09;64.25;92502.78;1686368;83;21204;-49
2022/02/17 11:04:33;;;;;;;7.50;4.85;;;;;;;8.16;64.39;92503.09;1691219;83;21025;-52
2022/02/17 11:07:00;;;;;;;8.05;6.47;;;;;;;8.22;63.74;92510.02;1667507;83;21109;-48
2022/02/17 11:09:27;;;;;;;15.23;12.15;;;;;;;8.18;64.14;92523.92;1686975;83;21550;-50
2022/02/17 11:11:54;;;;;;;8.65;6.17;;;;;;;8.11;64.07;92491.45;1682247;82;21052;-47
2022/02/17 11:14:43;;;;;;;15.28;12.60;;;;;;;8.05;65.14;92502.25;1685638;82;21142;-47
2022/02/17 11:17:12;;;;;;;7.53;6.10;;;;;;;8.02;65.45;92484.80;1670499;84;21188;-48
2022/02/17 11:19:40;;;;;;;26.23;18.07;;;;;;;8.02;65.76;92482.06;1643529;85;21159;-51
2022/02/17 11:22:07;;;;;;;115.00;71.30;;;;;;;8.04;65.78;92480.22;1644508;85;21116;-51
2022/02/17 11:24:51;;;;;;;18.48;12.50;;;;;;;8.02;66.03;92481.30;1641078;87;21485;-52
2022/02/17 11:27:18;;;;;;;5.22;4.72;;;;;;;7.90;66.47;92464.66;1617159;85;21327;-49
2022/02/17 11:29:46;;;;;;;5.03;4.62;;;;;;;7.81;66.78;92444.30;1621711;86;22088;-51
2022/02/17 11:32:18;;;;;;;12.40;8.30;;;;;;;7.81;67.32;92456.61;1663162;84;22196;-48
2022/02/17 11:34:50;;;;;;;34.17;22.03;;;;;;;7.87;67.65;92449.95;1641620;85;21037;-50
2022/02/17 11:37:28;;;;;;;23.90;17.40;;;;;;;7.95;68.14;92466.69;1641189;84;21587;-50
2022/02/17 11:40:08;;;;;;;19.65;15.32;;;;;;;8.03;68.02;92426.70;1645313;85;21268;-50
2022/02/17 11:42:42;;;;;;;12.40;9.55;;;;;;;8.14;68.64;92428.90;1640779;85;21073;-48
2022/02/17 11:45:15;;;;;;;53.95;30.20;;;;;;;8.24;68.78;92411.05;1666039;84;21251;-51
2022/02/17 11:48:09;;;;;;;20.05;15.23;;;;;;;8.36;68.90;92411.27;1649267;84;21564;-50
2022/02/17 11:50:45;;;;;;;13.83;11.55;;;;;;;8.41;68.53;92421.50;1664301;83;21045;-51
2022/02/17 11:53:34;;;;;;;7.80;6.92;;;;;;;8.43;68.54;92416.91;1703794;82;21133;-53
2022/02/17 11:56:18;;;;;;;6.65;5.45;;;;;;;8.41;68.54;92410.55;1664945;83;21221;-50